createdAt,value
2022-09-12T00:00:43.435Z,99.90
2022-09-12T00:04:02.787Z,99.90
2022-09-12T00:07:01.537Z,99.90
2022-09-12T00:10:00.305Z,99.90
2022-09-12T00:12:58.889Z,99.90
2022-09-12T00:15:58.005Z,99.90
2022-09-12T00:18:56.771Z,99.90
2022-09-12T00:21:56.347Z,99.90
2022-09-12T00:24:55.069Z,99.90
2022-09-12T00:27:54.035Z,99.90
2022-09-12T00:30:52.502Z,99.90
2022-09-12T00:33:52.084Z,99.90
2022-09-12T00:36:50.696Z,99.90
2022-09-12T00:39:49.417Z,99.90
2022-09-12T00:42:47.935Z,99.90
2022-09-12T00:45:47.055Z,99.90
2022-09-12T00:48:52.954Z,99.90
2022-09-12T00:52:00.486Z,99.90
2022-09-12T00:55:06.793Z,99.90
2022-09-12T00:58:13.312Z,99.90
2022-09-12T01:01:11.766Z,99.90
2022-09-12T01:04:12.220Z,99.90
2022-09-12T01:07:11.627Z,99.90
2022-09-12T01:10:12.150Z,99.90
2022-09-12T01:13:11.664Z,99.90
2022-09-12T01:16:10.697Z,99.90
2022-09-12T01:19:44.359Z,99.90
2022-09-12T01:23:09.698Z,99.90
2022-09-12T01:26:41.887Z,98.70
2022-09-12T01:30:05.765Z,98.90
2022-09-12T01:33:21.873Z,99.80
2022-09-12T01:36:39.856Z,99.90
2022-09-12T01:39:59.712Z,99.90
2022-09-12T01:43:18.819Z,99.90
2022-09-12T01:46:32.624Z,99.90
2022-09-12T01:49:44.318Z,99.70
2022-09-12T01:52:51.824Z,99.80
2022-09-12T01:55:57.077Z,99.90
2022-09-12T01:59:04.535Z,99.90
2022-09-12T02:02:10.591Z,99.80
2022-09-12T02:05:17.138Z,99.30
2022-09-12T02:08:21.135Z,98.50
2022-09-12T02:11:20.957Z,98.70
2022-09-12T02:14:27.335Z,98.80
2022-09-12T02:17:27.106Z,99.00
2022-09-12T02:20:48.554Z,98.90
2022-09-12T02:23:51.894Z,98.10
2022-09-12T02:26:56.616Z,96.80
2022-09-12T02:29:55.363Z,96.70
2022-09-12T02:33:24.790Z,95.20
2022-09-12T02:36:41.047Z,95.10
2022-09-12T02:39:44.997Z,94.70
2022-09-12T02:42:44.134Z,95.10
2022-09-12T02:45:43.234Z,95.00
2022-09-12T02:48:44.459Z,94.80
2022-09-12T02:51:48.281Z,94.50
2022-09-12T02:54:47.302Z,94.70
2022-09-12T02:57:46.042Z,95.00
2022-09-12T03:01:01.191Z,95.10
2022-09-12T03:04:27.836Z,95.20
2022-09-12T03:07:54.960Z,94.80
2022-09-12T03:11:19.211Z,93.80
2022-09-12T03:14:38.422Z,94.00
2022-09-12T03:18:07.830Z,93.60
2022-09-12T03:21:24.812Z,93.00
2022-09-12T03:24:38.458Z,93.90
2022-09-12T03:27:41.811Z,94.90
2022-09-12T03:30:42.938Z,95.20
2022-09-12T03:33:41.418Z,94.20
2022-09-12T03:36:41.629Z,93.90
2022-09-12T03:39:40.219Z,93.30
2022-09-12T03:42:39.993Z,92.90
2022-09-12T03:45:39.622Z,92.90
2022-09-12T03:48:38.615Z,92.90
2022-09-12T03:51:37.340Z,92.60
2022-09-12T03:54:36.223Z,92.70
2022-09-12T03:57:34.852Z,92.50
2022-09-12T04:00:33.792Z,92.50
2022-09-12T04:03:32.173Z,92.90
2022-09-12T04:06:31.920Z,92.80
2022-09-12T04:09:30.497Z,93.90
2022-09-12T04:12:30.616Z,94.30
2022-09-12T04:15:29.033Z,94.10
2022-09-12T04:18:28.671Z,94.20
2022-09-12T04:21:28.209Z,93.90
2022-09-12T04:24:27.174Z,93.60
2022-09-12T04:27:25.593Z,93.60
2022-09-12T04:30:24.375Z,93.10
2022-09-12T04:33:23.338Z,93.50
2022-09-12T04:36:23.330Z,93.70
2022-09-12T04:39:21.770Z,93.30
2022-09-12T04:42:20.862Z,93.30
2022-09-12T04:45:19.903Z,93.60
2022-09-12T04:48:18.859Z,95.10
2022-09-12T04:51:21.885Z,95.20
2022-09-12T04:54:21.467Z,94.70
2022-09-12T04:57:20.071Z,94.70
2022-09-12T05:00:18.955Z,95.00
2022-09-12T05:03:17.472Z,95.20
2022-09-12T05:06:26.644Z,95.20
2022-09-12T05:09:25.135Z,94.80
2022-09-12T05:12:23.887Z,94.60
2022-09-12T05:15:22.414Z,94.40
2022-09-12T05:18:21.795Z,93.70
2022-09-12T05:21:23.815Z,93.20
2022-09-12T05:24:22.989Z,93.60
2022-09-12T05:27:21.340Z,93.10
2022-09-12T05:30:20.144Z,93.10
2022-09-12T05:33:22.011Z,93.10
2022-09-12T05:36:25.927Z,93.20
2022-09-12T05:39:25.248Z,92.90
2022-09-12T05:42:24.044Z,92.90
2022-09-12T05:45:22.555Z,92.40
2022-09-12T05:48:24.765Z,92.30
2022-09-12T05:51:27.117Z,92.60
2022-09-12T05:54:30.853Z,92.40
2022-09-12T05:57:30.397Z,91.60
2022-09-12T06:00:33.281Z,91.50
2022-09-12T06:03:32.039Z,91.90
2022-09-12T06:06:32.582Z,90.80
2022-09-12T06:09:30.952Z,91.10
2022-09-12T06:12:30.740Z,91.30
2022-09-12T06:15:29.126Z,90.70
2022-09-12T06:18:27.885Z,91.10
2022-09-12T06:21:27.396Z,90.90
2022-09-12T06:24:26.242Z,91.10
2022-09-12T06:27:24.759Z,90.40
2022-09-12T06:30:25.504Z,88.70
2022-09-12T06:33:24.022Z,87.70
2022-09-12T06:36:27.576Z,86.20
2022-09-12T06:39:28.735Z,85.70
2022-09-12T06:42:27.707Z,84.80
2022-09-12T06:45:26.783Z,83.70
2022-09-12T06:48:25.673Z,82.30
2022-09-12T06:51:25.146Z,80.30
2022-09-12T06:54:23.971Z,79.80
2022-09-12T06:57:22.667Z,78.80
2022-09-12T07:00:21.525Z,78.80
2022-09-12T07:03:20.242Z,78.50
2022-09-12T07:06:21.402Z,77.90
2022-09-12T07:09:19.777Z,77.20
2022-09-12T07:12:18.567Z,77.40
2022-09-12T07:15:17.597Z,76.70
2022-09-12T07:18:16.375Z,77.20
2022-09-12T07:21:16.222Z,76.50
2022-09-12T07:24:14.954Z,75.90
2022-09-12T07:27:13.717Z,76.30
2022-09-12T07:30:12.873Z,75.90
2022-09-12T07:33:11.280Z,76.60
2022-09-12T07:36:13.935Z,78.00
2022-09-12T07:39:12.894Z,78.10
2022-09-12T07:42:13.128Z,78.70
2022-09-12T07:45:11.857Z,79.60
2022-09-12T07:48:10.992Z,79.90
2022-09-12T07:51:11.447Z,79.50
2022-09-12T07:54:10.703Z,79.30
2022-09-12T07:57:09.298Z,79.20
2022-09-12T08:00:09.049Z,78.30
2022-09-12T08:03:07.999Z,78.00
2022-09-12T08:06:10.776Z,78.50
2022-09-12T08:09:09.444Z,79.20
2022-09-12T08:12:08.436Z,80.40
2022-09-12T08:15:07.339Z,81.40
2022-09-12T08:18:06.214Z,81.20
2022-09-12T08:21:07.253Z,82.60
2022-09-12T08:24:07.467Z,82.60
2022-09-12T08:27:08.392Z,84.10
2022-09-12T08:30:07.561Z,84.90
2022-09-12T08:33:08.480Z,85.70
2022-09-12T08:36:11.986Z,86.20
2022-09-12T08:39:14.975Z,85.60
2022-09-12T08:42:27.219Z,85.20
2022-09-12T08:45:37.459Z,85.40
2022-09-12T08:48:36.955Z,85.40
2022-09-12T08:51:36.637Z,85.90
2022-09-12T08:54:35.637Z,85.60
2022-09-12T08:57:34.527Z,85.80
2022-09-12T09:00:43.632Z,86.10
2022-09-12T09:04:05.814Z,86.10
2022-09-12T09:07:35.382Z,86.70
2022-09-12T09:10:57.886Z,86.70
2022-09-12T09:14:44.173Z,86.50
2022-09-12T09:17:45.860Z,86.70
2022-09-12T09:21:03.950Z,86.60
2022-09-12T09:24:09.010Z,87.10
2022-09-12T09:27:39.268Z,87.30
2022-09-12T09:30:37.190Z,86.50
2022-09-12T09:33:36.244Z,87.10
2022-09-12T09:36:58.808Z,87.10
2022-09-12T09:40:09.668Z,87.30
2022-09-12T09:43:20.896Z,86.60
2022-09-12T09:46:19.857Z,86.90
2022-09-12T09:49:19.030Z,87.00
2022-09-12T09:52:25.378Z,86.90
2022-09-12T09:55:29.162Z,87.80
2022-09-12T09:58:31.640Z,87.60
2022-09-12T10:01:30.328Z,87.80
2022-09-12T10:04:32.835Z,88.40
2022-09-12T10:07:31.470Z,88.80
2022-09-12T10:10:30.247Z,88.30
2022-09-12T10:13:35.496Z,88.50
2022-09-12T10:16:48.744Z,89.30
2022-09-12T10:19:52.702Z,89.80
2022-09-12T10:23:24.470Z,89.50
2022-09-12T10:26:23.159Z,89.40
2022-09-12T10:29:30.494Z,89.00
2022-09-12T10:32:38.221Z,89.00
2022-09-12T10:35:54.340Z,89.50
2022-09-12T10:39:03.444Z,88.60
2022-09-12T10:42:04.778Z,89.10
2022-09-12T10:45:03.631Z,89.30
2022-09-12T10:48:21.342Z,89.70
2022-09-12T10:51:29.399Z,90.00
2022-09-12T10:54:29.113Z,90.10
2022-09-12T10:57:36.498Z,90.20
2022-09-12T11:00:41.478Z,90.10
2022-09-12T11:04:00.516Z,90.00
2022-09-12T11:07:27.484Z,89.60
2022-09-12T11:10:52.357Z,90.00
2022-09-12T11:14:09.275Z,89.40
2022-09-12T11:17:28.780Z,89.70
2022-09-12T11:20:55.505Z,89.70
2022-09-12T11:24:17.021Z,89.80
2022-09-12T11:27:33.870Z,90.10
2022-09-12T11:30:47.711Z,89.70
2022-09-12T11:33:50.424Z,89.90
2022-09-12T11:37:10.438Z,90.20
2022-09-12T11:40:38.606Z,90.00
2022-09-12T11:43:56.329Z,90.20
2022-09-12T11:46:55.217Z,90.60
2022-09-12T11:49:55.510Z,90.70
2022-09-12T11:53:01.122Z,90.90
2022-09-12T11:56:09.982Z,91.20
2022-09-12T11:59:33.514Z,91.20
2022-09-12T12:02:53.222Z,91.40
2022-09-12T12:06:00.482Z,91.50
2022-09-12T12:08:59.287Z,91.80
2022-09-12T12:12:01.662Z,91.90
2022-09-12T12:15:01.660Z,91.90
2022-09-12T12:18:03.097Z,91.80
2022-09-12T12:21:21.996Z,92.10
2022-09-12T12:24:26.341Z,92.40
2022-09-12T12:27:48.262Z,92.50
2022-09-12T12:31:03.049Z,92.40
2022-09-12T12:34:04.648Z,92.60
2022-09-12T12:37:39.217Z,92.60
2022-09-12T12:40:39.718Z,92.60
2022-09-12T12:43:38.787Z,93.00
2022-09-12T12:46:39.867Z,93.40
2022-09-12T12:49:38.952Z,93.30
2022-09-12T12:53:07.903Z,93.20
2022-09-12T12:56:41.765Z,93.80
2022-09-12T12:59:49.736Z,94.10
2022-09-12T13:03:24.799Z,94.50
2022-09-12T13:06:36.918Z,95.00
2022-09-12T13:09:52.739Z,95.70
2022-09-12T13:12:53.334Z,95.90
2022-09-12T13:15:53.078Z,96.30
2022-09-12T13:18:52.510Z,96.60
2022-09-12T13:22:02.141Z,97.40
2022-09-12T13:25:00.818Z,97.90
2022-09-12T13:28:18.966Z,98.40
2022-09-12T13:31:24.825Z,98.70
2022-09-12T13:34:29.893Z,99.00
2022-09-12T13:37:50.839Z,99.10
2022-09-12T13:41:17.419Z,99.20
2022-09-12T13:44:20.529Z,99.40
2022-09-12T13:47:33.100Z,99.90
2022-09-12T13:50:40.490Z,99.90
2022-09-12T13:53:47.958Z,99.60
2022-09-12T13:56:50.512Z,99.60
2022-09-12T13:59:49.907Z,99.70
2022-09-12T14:02:50.639Z,99.60
2022-09-12T14:05:57.892Z,99.70
2022-09-12T14:08:58.076Z,99.80
2022-09-12T14:11:58.363Z,99.90
2022-09-12T14:14:57.652Z,99.60
2022-09-12T14:18:01.886Z,99.60
2022-09-12T14:21:10.969Z,99.70
2022-09-12T14:24:13.506Z,99.60
2022-09-12T14:27:12.357Z,99.30
2022-09-12T14:30:31.010Z,99.50
2022-09-12T14:33:32.348Z,99.70
2022-09-12T14:36:35.306Z,99.90
2022-09-12T14:39:41.121Z,99.90
2022-09-12T14:42:43.547Z,99.80
2022-09-12T14:45:42.536Z,99.80
2022-09-12T14:48:50.739Z,99.60
2022-09-12T14:52:06.601Z,99.30
2022-09-12T14:55:30.169Z,99.10
2022-09-12T14:58:30.716Z,99.20
2022-09-12T15:01:32.154Z,99.40
2022-09-12T15:04:50.505Z,99.50
2022-09-12T15:07:56.021Z,99.70
2022-09-12T15:10:54.802Z,99.90
2022-09-12T15:13:53.918Z,99.90
2022-09-12T15:16:52.455Z,99.90
2022-09-12T15:19:51.131Z,99.90
2022-09-12T15:22:49.719Z,99.80
2022-09-12T15:25:51.396Z,99.70
2022-09-12T15:28:53.079Z,99.60
2022-09-12T15:31:55.650Z,99.70
2022-09-12T15:34:55.476Z,99.70
2022-09-12T15:37:59.600Z,99.90
2022-09-12T15:40:59.524Z,99.90
2022-09-12T15:44:01.791Z,99.90
2022-09-12T15:47:00.457Z,99.90
2022-09-12T15:50:01.856Z,99.90
2022-09-12T15:53:00.582Z,99.90
2022-09-12T15:55:59.593Z,99.90
2022-09-12T15:58:59.819Z,99.90
2022-09-12T16:02:02.780Z,99.90
2022-09-12T16:05:01.540Z,99.90
2022-09-12T16:08:01.308Z,99.90
2022-09-12T16:11:04.340Z,99.90
2022-09-12T16:14:04.347Z,99.90
2022-09-12T16:17:03.408Z,99.90
2022-09-12T16:20:02.529Z,99.90
2022-09-12T16:23:02.584Z,99.90
2022-09-12T16:26:05.150Z,99.90
2022-09-12T16:29:04.335Z,99.90
2022-09-12T16:32:03.613Z,99.90
2022-09-12T16:35:02.598Z,99.90
2022-09-12T16:38:05.375Z,99.90
2022-09-12T16:41:06.699Z,99.90
2022-09-12T16:44:05.491Z,99.90
2022-09-12T16:47:04.173Z,99.90
2022-09-12T16:50:03.126Z,99.90
2022-09-12T16:53:02.027Z,99.90
2022-09-12T16:56:00.910Z,99.90
2022-09-12T16:58:59.439Z,99.90
2022-09-12T17:01:58.303Z,99.90
2022-09-12T17:04:56.962Z,99.90
2022-09-12T17:07:55.752Z,99.90
2022-09-12T17:10:54.357Z,99.90
2022-09-12T17:14:10.694Z,99.90
2022-09-12T17:17:12.630Z,99.90
2022-09-12T17:20:11.600Z,99.90
2022-09-12T17:23:10.594Z,99.90
2022-09-12T17:26:10.683Z,99.90
2022-09-12T17:29:09.115Z,99.90
2022-09-12T17:32:07.981Z,99.90
2022-09-12T17:35:07.861Z,99.90
2022-09-12T17:38:07.014Z,99.90
2022-09-12T17:41:08.993Z,99.90
2022-09-12T17:44:08.330Z,99.90
2022-09-12T17:47:07.390Z,99.90
2022-09-12T17:50:30.407Z,99.90
2022-09-12T17:53:26.481Z,99.90
2022-09-12T17:56:28.406Z,99.90
2022-09-12T17:59:26.947Z,99.90
2022-09-12T18:02:25.706Z,99.90
2022-09-12T18:05:24.157Z,99.90
2022-09-12T18:08:24.765Z,99.90
2022-09-12T18:11:23.491Z,99.90
2022-09-12T18:14:22.289Z,99.90
2022-09-12T18:17:20.708Z,99.90
2022-09-12T18:20:19.632Z,99.90
2022-09-12T18:23:19.777Z,99.90
2022-09-12T18:26:18.574Z,99.90
2022-09-12T18:29:17.608Z,99.90
2022-09-12T18:32:16.338Z,99.90
2022-09-12T18:35:14.960Z,99.90
2022-09-12T18:38:13.734Z,99.90
2022-09-12T18:41:15.680Z,99.90
2022-09-12T18:44:14.413Z,99.90
2022-09-12T18:47:12.953Z,99.90
2022-09-12T18:50:11.748Z,99.90
2022-09-12T18:53:10.509Z,99.90
2022-09-12T18:56:12.568Z,99.90
2022-09-12T18:59:13.522Z,99.90
2022-09-12T19:02:17.078Z,99.90
2022-09-12T19:05:15.514Z,99.90
2022-09-12T19:08:14.317Z,99.90
2022-09-12T19:11:13.103Z,99.90
2022-09-12T19:14:11.827Z,99.90
2022-09-12T19:17:10.703Z,99.90
2022-09-12T19:20:09.725Z,99.90
2022-09-12T19:23:08.162Z,99.90
2022-09-12T19:26:10.307Z,99.90
2022-09-12T19:29:08.994Z,99.90
2022-09-12T19:32:09.031Z,99.90
2022-09-12T19:35:08.018Z,99.90
2022-09-12T19:38:06.781Z,99.90
2022-09-12T19:41:07.383Z,99.90
2022-09-12T19:44:07.837Z,99.90
2022-09-12T19:47:06.310Z,99.90
2022-09-12T19:50:05.548Z,99.90
2022-09-12T19:53:04.616Z,99.90
2022-09-12T19:56:05.841Z,99.90
2022-09-12T19:59:04.463Z,99.90
2022-09-12T20:02:03.256Z,99.90
2022-09-12T20:05:02.044Z,99.90
2022-09-12T20:08:01.112Z,99.90
2022-09-12T20:10:59.477Z,99.90
2022-09-12T20:13:58.293Z,99.90
2022-09-12T20:16:56.719Z,99.90
2022-09-12T20:19:56.042Z,99.90
2022-09-12T20:22:54.873Z,99.90
2022-09-12T20:25:53.585Z,99.90
2022-09-12T20:28:52.198Z,99.90
2022-09-12T20:31:54.932Z,99.90
2022-09-12T20:34:56.681Z,99.90
2022-09-12T20:37:55.439Z,99.90
2022-09-12T20:40:53.955Z,99.90
2022-09-12T20:43:55.372Z,99.90
2022-09-12T20:46:54.019Z,99.90
2022-09-12T20:49:55.834Z,99.90
2022-09-12T20:52:54.280Z,99.90
2022-09-12T20:56:07.332Z,99.90
2022-09-12T20:59:06.271Z,99.90
2022-09-12T21:02:05.052Z,99.90
2022-09-12T21:05:03.340Z,99.90
2022-09-12T21:08:02.235Z,99.90
2022-09-12T21:11:01.144Z,99.90
2022-09-12T21:13:59.813Z,99.90
2022-09-12T21:16:58.245Z,99.90
2022-09-12T21:19:56.996Z,99.90
2022-09-12T21:22:55.316Z,99.90
2022-09-12T21:25:57.007Z,99.90
2022-09-12T21:28:55.407Z,99.90
2022-09-12T21:31:54.045Z,99.90
2022-09-12T21:34:52.427Z,99.90
2022-09-12T21:37:53.560Z,99.90
2022-09-12T21:40:51.803Z,99.90
2022-09-12T21:43:50.651Z,99.90
2022-09-12T21:46:48.975Z,99.90
2022-09-12T21:49:47.673Z,99.90
2022-09-12T21:52:49.328Z,99.90
2022-09-12T21:55:48.031Z,99.90
2022-09-12T21:58:55.253Z,99.90
2022-09-12T22:01:55.220Z,99.90
2022-09-12T22:04:53.495Z,99.90
2022-09-12T22:07:52.937Z,99.90
2022-09-12T22:10:51.229Z,99.90
2022-09-12T22:13:49.935Z,99.90
2022-09-12T22:16:48.627Z,99.90
2022-09-12T22:23:01.517Z,99.90
2022-09-12T22:26:02.739Z,99.90
2022-09-12T22:29:01.665Z,99.90
2022-09-12T22:32:01.277Z,99.90
2022-09-12T22:34:59.969Z,99.90
2022-09-12T22:37:58.519Z,99.90
2022-09-12T22:40:57.378Z,99.90
2022-09-12T22:43:56.804Z,99.90
2022-09-12T22:46:55.116Z,99.90
2022-09-12T22:49:54.080Z,99.90
2022-09-12T22:52:53.715Z,99.90
2022-09-12T22:55:52.344Z,99.90
2022-09-12T22:58:51.330Z,99.90
2022-09-12T23:01:50.003Z,99.90
2022-09-12T23:04:54.661Z,99.90
2022-09-12T23:07:53.301Z,99.90
2022-09-12T23:10:51.630Z,99.90
2022-09-12T23:13:51.836Z,99.90
2022-09-12T23:16:50.425Z,99.90
2022-09-12T23:19:49.176Z,99.90
2022-09-12T23:22:56.874Z,99.90
2022-09-12T23:26:04.706Z,99.90
2022-09-12T23:29:04.949Z,99.90
2022-09-12T23:32:04.653Z,99.90
2022-09-12T23:35:04.090Z,99.90
2022-09-12T23:38:02.893Z,99.90
2022-09-12T23:41:03.318Z,99.90
2022-09-12T23:44:02.191Z,99.90
2022-09-12T23:47:00.592Z,99.90
2022-09-12T23:49:59.352Z,99.90
2022-09-12T23:52:57.789Z,99.90
2022-09-12T23:55:56.640Z,99.90
2022-09-12T23:58:55.030Z,99.90
